createdAt,value
2018-07-05T00:02:20.749Z,10.77
2018-07-05T00:05:00.525Z,11.23
2018-07-05T00:07:40.130Z,11.70
2018-07-05T00:10:19.918Z,11.40
2018-07-05T00:12:59.789Z,10.93
2018-07-05T00:15:39.528Z,11.33
2018-07-05T00:18:19.215Z,11.27
2018-07-05T00:20:58.949Z,10.80
2018-07-05T00:23:38.804Z,11.60
2018-07-05T00:26:19.151Z,11.20
2018-07-05T00:28:58.797Z,11.27
2018-07-05T00:31:38.496Z,10.93
2018-07-05T00:34:18.185Z,10.97
2018-07-05T00:36:57.981Z,12.03
2018-07-05T00:39:37.865Z,10.40
2018-07-05T00:42:17.637Z,10.70
2018-07-05T00:44:57.434Z,10.80
2018-07-05T00:47:37.276Z,11.60
2018-07-05T00:50:16.965Z,11.13
2018-07-05T00:52:56.677Z,12.30
2018-07-05T00:55:36.473Z,11.90
2018-07-05T00:58:16.294Z,12.50
2018-07-05T01:00:56.106Z,12.87
2018-07-05T01:03:35.848Z,12.60
2018-07-05T01:06:15.797Z,12.67
2018-07-05T01:08:55.538Z,13.07
2018-07-05T01:11:35.221Z,12.67
2018-07-05T01:14:15.083Z,12.33
2018-07-05T01:16:54.830Z,13.47
2018-07-05T01:19:34.589Z,16.07
2018-07-05T01:22:14.381Z,13.80
2018-07-05T01:24:53.989Z,13.37
2018-07-05T01:27:36.992Z,13.40
2018-07-05T01:30:17.997Z,13.80
2018-07-05T01:32:57.872Z,13.60
2018-07-05T01:35:37.923Z,13.50
2018-07-05T01:38:17.709Z,13.83
2018-07-05T01:40:57.357Z,13.77
2018-07-05T01:43:37.134Z,13.73
2018-07-05T01:46:16.772Z,14.07
2018-07-05T01:48:56.473Z,15.10
2018-07-05T01:51:36.289Z,14.17
2018-07-05T01:54:16.196Z,14.27
2018-07-05T01:56:55.920Z,14.40
2018-07-05T01:59:35.907Z,13.13
2018-07-05T02:02:15.557Z,17.37
2018-07-05T02:04:55.446Z,14.93
2018-07-05T02:07:35.113Z,14.00
2018-07-05T02:10:14.977Z,14.33
2018-07-05T02:12:54.709Z,14.43
2018-07-05T02:15:34.356Z,14.47
2018-07-05T02:18:14.179Z,14.43
2018-07-05T02:20:53.869Z,14.47
2018-07-05T02:23:33.829Z,16.70
2018-07-05T02:26:13.602Z,14.90
2018-07-05T02:28:53.317Z,14.33
2018-07-05T02:31:33.151Z,14.13
2018-07-05T02:34:12.849Z,14.37
2018-07-05T02:36:52.665Z,16.53
2018-07-05T02:39:37.789Z,16.03
2018-07-05T02:42:17.565Z,17.07
2018-07-05T02:44:57.213Z,16.83
2018-07-05T02:47:36.909Z,16.57
2018-07-05T02:50:16.748Z,15.87
2018-07-05T02:52:56.561Z,14.43
2018-07-05T02:55:36.350Z,15.87
2018-07-05T02:58:16.069Z,18.73
2018-07-05T03:00:55.861Z,17.53
2018-07-05T03:03:35.807Z,17.47
2018-07-05T03:06:15.554Z,15.70
2018-07-05T03:08:55.262Z,16.10
2018-07-05T03:11:35.037Z,16.03
2018-07-05T03:14:14.781Z,18.33
2018-07-05T03:16:54.418Z,16.07
2018-07-05T03:19:34.169Z,16.80
2018-07-05T03:22:13.821Z,17.40
2018-07-05T03:24:53.606Z,17.47
2018-07-05T03:27:33.458Z,16.83
2018-07-05T03:30:13.112Z,17.53
2018-07-05T03:32:52.663Z,18.77
2018-07-05T03:35:34.341Z,17.83
2018-07-05T03:38:14.101Z,16.73
2018-07-05T03:40:58.217Z,17.03
2018-07-05T03:43:38.933Z,16.77
2018-07-05T03:46:18.733Z,22.93
2018-07-05T03:48:58.257Z,22.00
2018-07-05T03:51:38.136Z,21.23
2018-07-05T03:54:17.881Z,19.53
2018-07-05T03:56:57.581Z,20.63
2018-07-05T03:59:37.321Z,24.37
2018-07-05T04:02:17.021Z,21.73
2018-07-05T04:04:56.773Z,22.73
2018-07-05T04:07:36.553Z,18.80
2018-07-05T04:10:16.225Z,18.77
2018-07-05T04:12:55.962Z,18.47
2018-07-05T04:15:35.649Z,20.83
2018-07-05T04:18:15.457Z,22.67
2018-07-05T04:20:55.180Z,17.80
2018-07-05T04:23:34.929Z,16.43
2018-07-05T04:26:14.601Z,15.97
2018-07-05T04:28:54.396Z,18.07
2018-07-05T04:31:34.149Z,16.57
2018-07-05T04:34:13.970Z,17.40
2018-07-05T04:36:53.597Z,16.40
2018-07-05T04:39:33.349Z,14.63
2018-07-05T04:42:12.964Z,15.83
2018-07-05T04:44:52.591Z,16.23
2018-07-05T04:47:32.219Z,17.10
2018-07-05T04:50:12.037Z,15.50
2018-07-05T04:52:52.505Z,17.37
2018-07-05T04:55:32.255Z,16.70
2018-07-05T04:58:12.929Z,18.80
2018-07-05T05:00:52.668Z,18.67
2018-07-05T05:03:32.462Z,18.10
2018-07-05T05:06:12.185Z,17.37
2018-07-05T05:08:51.913Z,21.97
2018-07-05T05:11:31.670Z,19.43
2018-07-05T05:14:11.568Z,17.03
2018-07-05T05:16:51.216Z,17.77
2018-07-05T05:19:30.881Z,17.37
2018-07-05T05:22:10.653Z,17.07
2018-07-05T05:24:50.467Z,17.73
2018-07-05T05:27:30.244Z,16.50
2018-07-05T05:30:09.969Z,18.20
2018-07-05T05:32:49.806Z,18.03
2018-07-05T05:35:29.457Z,19.57
2018-07-05T05:38:09.273Z,19.40
2018-07-05T05:40:49.087Z,18.43
2018-07-05T05:43:28.909Z,19.27
2018-07-05T05:46:08.721Z,19.70
2018-07-05T05:48:48.419Z,18.67
2018-07-05T05:51:28.143Z,18.27
2018-07-05T05:54:08.209Z,17.60
2018-07-05T05:56:48.302Z,18.70
2018-07-05T05:59:28.244Z,19.40
2018-07-05T06:02:08.151Z,18.57
2018-07-05T06:04:47.848Z,20.73
2018-07-05T06:07:28.169Z,19.67
2018-07-05T06:10:07.969Z,19.83
2018-07-05T06:12:42.561Z,23.03
2018-07-05T06:15:22.237Z,20.67
2018-07-05T06:18:02.043Z,21.00
2018-07-05T06:20:41.834Z,22.20
2018-07-05T06:23:21.528Z,21.57
2018-07-05T06:25:55.296Z,22.47
2018-07-05T06:28:35.208Z,21.37
2018-07-05T06:31:08.837Z,20.87
2018-07-05T06:33:48.812Z,20.27
2018-07-05T06:36:28.513Z,22.53
2018-07-05T06:39:08.725Z,21.33
2018-07-05T06:41:49.258Z,22.97
2018-07-05T06:44:29.146Z,19.53
2018-07-05T06:47:08.877Z,21.63
2018-07-05T06:49:48.572Z,21.27
2018-07-05T06:52:28.443Z,22.30
2018-07-05T06:55:08.097Z,21.50
2018-07-05T06:57:47.873Z,23.30
2018-07-05T07:00:27.669Z,23.50
2018-07-05T07:03:07.402Z,24.40
2018-07-05T07:05:47.065Z,23.00
2018-07-05T07:08:26.957Z,23.33
2018-07-05T07:11:06.829Z,24.87
2018-07-05T07:13:46.542Z,24.43
2018-07-05T07:16:26.303Z,25.43
2018-07-05T07:19:06.146Z,23.37
2018-07-05T07:21:46.041Z,24.80
2018-07-05T07:24:25.717Z,23.97
2018-07-05T07:27:05.549Z,24.77
2018-07-05T07:29:45.209Z,21.63
2018-07-05T07:32:24.993Z,26.30
2018-07-05T07:35:04.856Z,27.20
2018-07-05T07:37:44.707Z,25.77
2018-07-05T07:40:24.397Z,24.87
2018-07-05T07:42:51.766Z,28.00
2018-07-05T07:45:19.140Z,29.13
2018-07-05T07:47:46.574Z,27.27
2018-07-05T07:50:13.963Z,30.27
2018-07-05T07:52:41.317Z,28.27
2018-07-05T07:55:09.016Z,28.40
2018-07-05T07:57:36.368Z,28.43
2018-07-05T08:00:03.729Z,30.27
2018-07-05T08:02:31.105Z,30.23
2018-07-05T08:04:58.484Z,29.17
2018-07-05T08:07:25.845Z,29.57
2018-07-05T08:09:53.226Z,30.57
2018-07-05T08:12:20.586Z,31.97
2018-07-05T08:14:47.945Z,28.77
2018-07-05T08:17:15.338Z,29.80
2018-07-05T08:19:42.719Z,29.90
2018-07-05T08:22:10.075Z,29.83
2018-07-05T08:24:37.449Z,29.50
2018-07-05T08:27:04.806Z,29.77
2018-07-05T08:29:32.513Z,30.30
2018-07-05T08:31:59.873Z,31.63
2018-07-05T08:34:27.277Z,27.90
2018-07-05T08:36:54.621Z,30.57
2018-07-05T08:39:22.005Z,28.70
2018-07-05T08:41:49.366Z,28.07
2018-07-05T08:44:16.750Z,30.27
2018-07-05T08:46:44.109Z,30.10
2018-07-05T08:49:11.490Z,30.67
2018-07-05T08:51:38.857Z,30.30
2018-07-05T08:54:06.240Z,30.73
2018-07-05T08:56:33.629Z,30.47
2018-07-05T08:59:01.037Z,28.00
2018-07-05T09:01:28.401Z,30.83
2018-07-05T09:03:55.762Z,34.23
2018-07-05T09:06:23.151Z,32.97
2018-07-05T09:08:50.514Z,30.03
2018-07-05T09:11:17.909Z,32.73
2018-07-05T09:13:45.268Z,33.17
2018-07-05T09:16:12.651Z,30.80
2018-07-05T09:18:40.010Z,31.97
2018-07-05T09:21:07.418Z,34.50
2018-07-05T09:23:34.795Z,30.73
2018-07-05T09:26:02.186Z,33.77
2018-07-05T09:28:29.597Z,30.70
2018-07-05T09:30:56.961Z,36.00
2018-07-05T09:33:24.352Z,32.23
2018-07-05T09:35:51.713Z,32.73
2018-07-05T09:38:19.102Z,32.20
2018-07-05T09:40:46.465Z,35.63
2018-07-05T09:43:13.845Z,33.90
2018-07-05T09:45:41.698Z,36.37
2018-07-05T09:48:09.053Z,39.50
2018-07-05T09:50:36.440Z,39.17
2018-07-05T09:53:03.785Z,41.05
2018-07-05T09:55:31.177Z,39.33
2018-07-05T09:57:58.580Z,35.88
2018-07-05T10:00:31.153Z,32.65
2018-07-05T10:02:58.525Z,33.73
2018-07-05T10:05:25.926Z,29.82
2018-07-05T10:07:53.284Z,31.62
2018-07-05T10:10:20.642Z,31.07
2018-07-05T10:12:48.072Z,30.23
2018-07-05T10:15:15.432Z,29.10
2018-07-05T10:17:42.805Z,28.45
2018-07-05T10:20:10.175Z,28.67
2018-07-05T10:22:37.578Z,30.17
2018-07-05T10:25:04.965Z,29.40
2018-07-05T10:27:32.367Z,29.42
2018-07-05T10:30:12.184Z,29.32
2018-07-05T10:32:52.123Z,30.82
2018-07-05T10:35:19.466Z,30.27
2018-07-05T10:37:46.825Z,32.20
2018-07-05T10:40:26.641Z,31.87
2018-07-05T10:43:06.495Z,32.98
2018-07-05T10:45:46.102Z,32.35
2018-07-05T10:48:25.988Z,30.57
2018-07-05T10:51:05.707Z,27.75
2018-07-05T10:53:45.493Z,24.90
2018-07-05T10:56:25.203Z,25.70
2018-07-05T10:59:04.943Z,24.63
2018-07-05T11:01:44.723Z,24.80
2018-07-05T11:04:24.616Z,23.32
2018-07-05T11:07:04.322Z,23.30
2018-07-05T11:09:44.176Z,22.90
2018-07-05T11:12:23.865Z,23.30
2018-07-05T11:15:03.609Z,23.85
2018-07-05T11:17:43.329Z,20.12
2018-07-05T11:20:22.985Z,21.50
2018-07-05T11:23:02.632Z,20.60
2018-07-05T11:25:42.405Z,21.50
2018-07-05T11:28:22.320Z,24.63
2018-07-05T11:31:02.081Z,24.30
2018-07-05T11:33:41.908Z,23.75
2018-07-05T11:36:21.745Z,22.93
2018-07-05T11:39:01.482Z,24.57
2018-07-05T11:41:41.301Z,24.82
2018-07-05T11:44:21.073Z,22.60
2018-07-05T11:47:00.925Z,22.55
2018-07-05T11:49:40.514Z,26.70
2018-07-05T11:52:20.343Z,26.12
2018-07-05T11:55:00.165Z,24.77
2018-07-05T11:57:39.908Z,25.43
2018-07-05T12:00:19.541Z,24.75
2018-07-05T12:02:59.266Z,25.43
2018-07-05T12:05:39.077Z,24.47
2018-07-05T12:08:18.844Z,22.62
2018-07-05T12:10:58.634Z,21.73
2018-07-05T12:13:40.305Z,19.87
2018-07-05T12:16:20.133Z,19.67
2018-07-05T12:18:59.780Z,20.08
2018-07-05T12:21:39.550Z,21.40
2018-07-05T12:24:19.147Z,21.30
2018-07-05T12:26:58.911Z,19.30
2018-07-05T12:29:38.633Z,20.55
2018-07-05T12:32:18.219Z,21.42
2018-07-05T12:34:57.941Z,21.35
2018-07-05T12:37:37.722Z,20.45
2018-07-05T12:40:17.522Z,19.65
2018-07-05T12:42:57.329Z,20.25
2018-07-05T12:45:37.138Z,20.23
2018-07-05T12:48:16.877Z,18.32
2018-07-05T12:50:56.550Z,18.30
2018-07-05T12:53:36.285Z,17.17
2018-07-05T12:56:15.913Z,16.73
2018-07-05T12:58:55.736Z,15.45
2018-07-05T13:01:35.664Z,15.18
2018-07-05T13:04:15.426Z,13.28
2018-07-05T13:06:55.064Z,12.65
2018-07-05T13:09:35.008Z,12.28
2018-07-05T13:12:14.693Z,13.10
2018-07-05T13:14:54.576Z,12.05
2018-07-05T13:17:34.281Z,12.55
2018-07-05T13:20:14.197Z,11.73
2018-07-05T13:22:53.993Z,11.70
2018-07-05T13:25:33.902Z,11.85
2018-07-05T13:28:13.598Z,11.25
2018-07-05T13:30:53.394Z,12.15
2018-07-05T13:33:33.180Z,11.63
2018-07-05T13:36:12.866Z,12.43
2018-07-05T13:38:52.621Z,10.95
2018-07-05T13:41:32.381Z,10.88
2018-07-05T13:44:12.034Z,11.35
2018-07-05T13:46:51.781Z,10.55
2018-07-05T13:49:31.433Z,10.53
2018-07-05T13:52:11.398Z,11.50
2018-07-05T13:54:51.402Z,10.68
2018-07-05T13:57:31.239Z,10.43
2018-07-05T14:00:11.021Z,11.12
2018-07-05T14:02:50.681Z,10.98
2018-07-05T14:05:30.409Z,12.20
2018-07-05T14:08:10.222Z,12.68
2018-07-05T14:10:50.009Z,11.83
2018-07-05T14:13:29.705Z,11.50
2018-07-05T14:16:09.430Z,10.63
2018-07-05T14:18:49.225Z,10.28
2018-07-05T14:21:29.004Z,9.63
2018-07-05T14:24:09.040Z,10.00
2018-07-05T14:26:48.915Z,10.48
2018-07-05T14:29:28.583Z,10.38
2018-07-05T14:32:08.296Z,10.20
2018-07-05T14:34:47.993Z,10.13
2018-07-05T14:37:27.801Z,9.88
2018-07-05T14:40:07.525Z,9.60
2018-07-05T14:42:47.162Z,9.90
2018-07-05T14:45:27.034Z,9.38
2018-07-05T14:48:07.053Z,9.50
2018-07-05T14:50:46.749Z,9.48
2018-07-05T14:53:26.529Z,9.33
2018-07-05T14:56:06.249Z,8.65
2018-07-05T14:58:46.016Z,9.00
2018-07-05T15:01:26.054Z,10.15
2018-07-05T15:04:05.752Z,9.13
2018-07-05T15:06:45.608Z,9.38
2018-07-05T15:09:25.434Z,9.60
2018-07-05T15:12:05.349Z,10.08
2018-07-05T15:14:44.963Z,9.85
2018-07-05T15:17:24.680Z,10.50
2018-07-05T15:20:04.377Z,10.78
2018-07-05T15:22:44.041Z,10.23
2018-07-05T15:25:23.881Z,10.10
2018-07-05T15:28:03.624Z,9.60
2018-07-05T15:30:43.484Z,9.40
2018-07-05T15:33:23.449Z,8.65
2018-07-05T15:36:03.156Z,8.43
2018-07-05T15:38:42.945Z,8.90
2018-07-05T15:41:22.661Z,8.55
2018-07-05T15:44:02.421Z,7.78
2018-07-05T15:46:42.178Z,8.10
2018-07-05T15:49:21.965Z,8.18
2018-07-05T15:52:01.817Z,8.03
2018-07-05T15:54:41.507Z,7.97
2018-07-05T15:57:21.213Z,7.58
2018-07-05T16:00:00.980Z,7.87
2018-07-05T16:02:40.642Z,7.83
2018-07-05T16:05:20.410Z,8.08
2018-07-05T16:08:00.201Z,8.15
2018-07-05T16:10:39.998Z,8.60
2018-07-05T16:13:19.834Z,7.92
2018-07-05T16:15:59.734Z,7.75
2018-07-05T16:18:39.567Z,7.87
2018-07-05T16:21:13.337Z,8.20
2018-07-05T16:23:53.274Z,7.95
2018-07-05T16:26:33.043Z,8.00
2018-07-05T16:29:12.762Z,8.03
2018-07-05T16:31:52.448Z,8.35
2018-07-05T16:34:32.364Z,7.87
2018-07-05T16:37:12.210Z,8.08
2018-07-05T16:39:51.844Z,7.90
2018-07-05T16:42:31.594Z,7.70
2018-07-05T16:45:11.308Z,8.08
2018-07-05T16:47:51.045Z,8.10
2018-07-05T16:50:30.826Z,8.20
2018-07-05T16:53:10.753Z,7.95
2018-07-05T16:55:50.273Z,7.25
2018-07-05T16:58:30.041Z,8.00
2018-07-05T17:01:09.790Z,8.38
2018-07-05T17:03:49.493Z,7.87
2018-07-05T17:06:29.379Z,7.78
2018-07-05T17:09:09.188Z,7.90
2018-07-05T17:11:49.053Z,8.10
2018-07-05T17:14:28.683Z,8.18
2018-07-05T17:17:08.607Z,10.23
2018-07-05T17:19:48.250Z,8.33
2018-07-05T17:22:27.861Z,8.70
2018-07-05T17:25:07.781Z,9.03
2018-07-05T17:27:47.615Z,8.38
2018-07-05T17:30:27.241Z,8.15
2018-07-05T17:33:06.914Z,8.43
2018-07-05T17:35:50.401Z,8.13
2018-07-05T17:38:30.120Z,7.78
2018-07-05T17:41:10.065Z,7.78
2018-07-05T17:43:49.853Z,8.43
2018-07-05T17:46:29.497Z,9.83
2018-07-05T17:49:09.309Z,8.98
2018-07-05T17:51:49.026Z,8.70
2018-07-05T17:54:28.649Z,8.03
2018-07-05T17:57:08.317Z,8.45
2018-07-05T17:59:48.133Z,7.97
2018-07-05T18:02:27.948Z,8.38
2018-07-05T18:05:07.678Z,8.48
2018-07-05T18:07:47.397Z,8.53
2018-07-05T18:10:27.065Z,8.98
2018-07-05T18:13:06.780Z,8.25
2018-07-05T18:15:46.633Z,8.03
2018-07-05T18:18:26.705Z,8.40
2018-07-05T18:21:06.433Z,9.08
2018-07-05T18:23:47.196Z,8.83
2018-07-05T18:26:27.180Z,8.00
2018-07-05T18:29:06.801Z,8.85
2018-07-05T18:31:46.509Z,9.23
2018-07-05T18:34:26.477Z,8.85
2018-07-05T18:37:06.190Z,9.03
2018-07-05T18:39:45.976Z,9.67
2018-07-05T18:42:25.845Z,8.73
2018-07-05T18:45:05.555Z,9.33
2018-07-05T18:47:45.253Z,8.37
2018-07-05T18:50:25.045Z,8.60
2018-07-05T18:53:04.770Z,8.50
2018-07-05T18:55:44.621Z,8.70
2018-07-05T18:58:24.252Z,8.67
2018-07-05T19:01:04.124Z,9.07
2018-07-05T19:03:43.957Z,9.33
2018-07-05T19:06:23.557Z,8.77
2018-07-05T19:09:03.416Z,8.27
2018-07-05T19:11:43.288Z,9.23
2018-07-05T19:14:23.021Z,8.53
2018-07-05T19:17:02.781Z,8.20
2018-07-05T19:19:42.373Z,8.37
2018-07-05T19:22:22.185Z,8.43
2018-07-05T19:25:02.153Z,8.10
2018-07-05T19:27:41.904Z,8.40
2018-07-05T19:30:21.597Z,8.40
2018-07-05T19:33:01.417Z,8.17
2018-07-05T19:35:41.260Z,7.93
2018-07-05T19:38:21.025Z,8.60
2018-07-05T19:41:00.758Z,8.33
2018-07-05T19:43:40.328Z,7.97
2018-07-05T19:46:20.170Z,8.10
2018-07-05T19:48:59.982Z,8.10
2018-07-05T19:51:39.669Z,8.40
2018-07-05T19:54:19.369Z,7.77
2018-07-05T19:56:59.021Z,8.40
2018-07-05T19:59:38.901Z,7.37
2018-07-05T20:02:18.772Z,8.23
2018-07-05T20:04:58.611Z,7.90
2018-07-05T20:07:38.577Z,7.40
2018-07-05T20:10:18.337Z,7.57
2018-07-05T20:12:58.037Z,7.33
2018-07-05T20:15:37.820Z,7.57
2018-07-05T20:18:17.366Z,8.47
2018-07-05T20:20:57.243Z,7.53
2018-07-05T20:23:37.020Z,7.73
2018-07-05T20:26:16.637Z,7.60
2018-07-05T20:28:56.369Z,7.23
2018-07-05T20:31:36.305Z,7.73
2018-07-05T20:34:16.180Z,6.67
2018-07-05T20:36:55.821Z,6.90
2018-07-05T20:39:35.655Z,6.30
2018-07-05T20:42:15.570Z,6.83
2018-07-05T20:44:55.293Z,6.37
2018-07-05T20:47:34.978Z,6.53
2018-07-05T20:50:14.698Z,6.90
2018-07-05T20:52:54.717Z,6.80
2018-07-05T20:55:34.436Z,6.03
2018-07-05T20:58:14.341Z,6.57
2018-07-05T21:00:54.112Z,6.33
2018-07-05T21:03:34.043Z,6.37
2018-07-05T21:06:13.843Z,6.53
2018-07-05T21:08:53.737Z,6.57
2018-07-05T21:11:33.477Z,7.03
2018-07-05T21:14:13.312Z,6.63
2018-07-05T21:16:53.014Z,6.17
2018-07-05T21:19:32.721Z,6.43
2018-07-05T21:22:12.409Z,6.77
2018-07-05T21:24:52.175Z,6.90
2018-07-05T21:27:31.844Z,6.60
2018-07-05T21:30:11.751Z,7.17
2018-07-05T21:32:51.616Z,7.17
2018-07-05T21:35:31.238Z,6.80
2018-07-05T21:38:10.837Z,6.93
2018-07-05T21:40:50.631Z,6.90
2018-07-05T21:43:30.321Z,7.23
2018-07-05T21:46:10.089Z,7.10
2018-07-05T21:48:49.748Z,6.93
2018-07-05T21:51:29.396Z,6.77
2018-07-05T21:54:09.303Z,6.97
2018-07-05T21:56:49.121Z,6.77
2018-07-05T21:59:28.888Z,6.60
2018-07-05T22:02:08.635Z,6.80
2018-07-05T22:04:48.353Z,6.93
2018-07-05T22:07:28.145Z,7.33
2018-07-05T22:10:07.736Z,7.00
2018-07-05T22:12:47.449Z,6.90
2018-07-05T22:15:27.176Z,7.00
2018-07-05T22:18:06.481Z,7.13
2018-07-05T22:20:51.790Z,7.27
2018-07-05T22:23:36.898Z,7.67
2018-07-05T22:26:22.094Z,7.10
2018-07-05T22:29:07.442Z,7.40
2018-07-05T22:31:51.389Z,7.40
2018-07-05T22:34:31.149Z,7.20
2018-07-05T22:37:10.797Z,7.57
2018-07-05T22:39:50.581Z,7.43
2018-07-05T22:42:30.292Z,8.33
2018-07-05T22:45:09.856Z,7.97
2018-07-05T22:47:49.577Z,8.13
2018-07-05T22:50:29.085Z,7.70
2018-07-05T22:53:08.809Z,8.30
2018-07-05T22:55:48.594Z,7.90
2018-07-05T22:58:28.401Z,7.93
2018-07-05T23:01:08.089Z,7.73
2018-07-05T23:03:47.852Z,8.77
2018-07-05T23:06:27.701Z,7.93
2018-07-05T23:09:07.437Z,7.97
2018-07-05T23:11:47.265Z,7.67
2018-07-05T23:14:27.104Z,8.53
2018-07-05T23:17:06.933Z,7.77
2018-07-05T23:19:46.554Z,8.87
2018-07-05T23:22:26.420Z,8.50
2018-07-05T23:25:06.640Z,9.23
2018-07-05T23:27:46.698Z,8.87
2018-07-05T23:30:26.445Z,8.43
2018-07-05T23:33:00.156Z,8.97
2018-07-05T23:35:39.829Z,8.97
2018-07-05T23:38:19.456Z,8.83
2018-07-05T23:40:59.169Z,8.23
2018-07-05T23:43:39.036Z,8.47
2018-07-05T23:46:18.673Z,8.57
2018-07-05T23:48:58.561Z,8.87
2018-07-05T23:51:38.361Z,8.77
2018-07-05T23:54:18.354Z,9.40
2018-07-05T23:56:58.335Z,9.73
2018-07-05T23:59:38.013Z,8.73
